Time;durP1;ratioP1;P1;durP2;ratioP2;P2;SDS_P1;SDS_P2;PMS_P1;PMS_P2;Temp;Humidity;BMP_temperature;BMP_pressure;BME280_temperature;BME280_humidity;BME280_pressure;Samples;Min_cycle;Max_cycle;Signal;HPM_P1;HPM_P2
2022/07/17 00:01:39;;;;;;;4.43;1.10;;;20.70;78.10;;;;;;5066231;28;20203;-51
2022/07/17 00:04:07;;;;;;;3.00;1.17;;;20.70;78.30;;;;;;5068252;28;20206;-50
2022/07/17 00:06:36;;;;;;;3.95;1.13;;;20.70;78.30;;;;;;5068715;28;20227;-50
2022/07/17 00:09:04;;;;;;;2.40;1.42;;;20.70;78.40;;;;;;5057098;28;20631;-43
2022/07/17 00:11:36;;;;;;;2.63;1.40;;;20.60;78.50;;;;;;5028417;28;20201;-43
2022/07/17 00:14:03;;;;;;;3.17;1.58;;;20.60;78.60;;;;;;5047101;28;20227;-43
2022/07/17 00:16:30;;;;;;;3.55;1.13;;;20.60;78.70;;;;;;5034656;28;20207;-42
2022/07/17 00:18:58;;;;;;;4.28;1.50;;;20.60;78.70;;;;;;5027941;28;20246;-41
2022/07/17 00:21:25;;;;;;;1.83;1.25;;;20.50;78.70;;;;;;5028314;28;20208;-43
2022/07/17 00:23:53;;;;;;;3.38;1.38;;;20.50;78.90;;;;;;5028222;28;20667;-42
2022/07/17 00:26:20;;;;;;;2.17;1.30;;;20.50;79.00;;;;;;5028260;28;20228;-44
2022/07/17 00:28:47;;;;;;;1.98;1.13;;;20.40;79.00;;;;;;5028734;28;20255;-44
2022/07/17 00:31:19;;;;;;;1.88;1.23;;;20.40;79.10;;;;;;5028234;28;20574;-43
2022/07/17 00:33:49;;;;;;;4.00;1.30;;;20.40;79.20;;;;;;5043733;28;20444;-44
2022/07/17 00:36:16;;;;;;;2.92;1.08;;;20.30;79.20;;;;;;5048294;28;20215;-44
2022/07/17 00:38:46;;;;;;;3.53;1.20;;;20.30;79.20;;;;;;5039230;28;20208;-44
2022/07/17 00:41:15;;;;;;;2.30;1.40;;;20.30;79.20;;;;;;5028643;28;20727;-43
2022/07/17 00:43:42;;;;;;;1.75;1.10;;;20.20;79.20;;;;;;5027843;28;20494;-44
2022/07/17 00:46:11;;;;;;;2.60;1.25;;;20.20;79.20;;;;;;5028417;28;20306;-44
2022/07/17 00:48:39;;;;;;;3.92;1.25;;;20.20;79.40;;;;;;5038343;28;20315;-44
2022/07/17 00:51:09;;;;;;;2.92;1.40;;;20.20;79.50;;;;;;5046436;28;20600;-42
2022/07/17 00:53:41;;;;;;;3.58;1.50;;;20.10;79.50;;;;;;5046210;28;20234;-43
2022/07/17 00:56:11;;;;;;;5.63;1.65;;;20.10;79.60;;;;;;5047824;28;20200;-42
2022/07/17 00:58:39;;;;;;;4.22;1.65;;;20.10;79.40;;;;;;5036794;28;20291;-42
2022/07/17 01:01:08;;;;;;;3.42;1.23;;;20.10;79.50;;;;;;5030727;28;20278;-42
2022/07/17 01:03:36;;;;;;;3.85;1.65;;;20.10;79.70;;;;;;5033636;28;20208;-43
2022/07/17 01:06:07;;;;;;;4.82;1.80;;;20.00;79.70;;;;;;5039646;28;20291;-42
2022/07/17 01:08:37;;;;;;;4.57;1.75;;;20.00;79.90;;;;;;5035733;28;20670;-43
2022/07/17 01:11:05;;;;;;;3.40;1.30;;;20.00;80.00;;;;;;5046478;28;20652;-42
2022/07/17 01:13:35;;;;;;;2.83;1.20;;;20.00;80.20;;;;;;5011978;28;20205;-42
2022/07/17 01:16:02;;;;;;;2.85;1.40;;;19.90;80.10;;;;;;5028519;28;20619;-43
2022/07/17 01:18:32;;;;;;;5.22;1.40;;;19.90;80.10;;;;;;5041473;28;20594;-42
2022/07/17 01:21:05;;;;;;;3.10;1.30;;;19.90;80.00;;;;;;5029002;28;20209;-52
2022/07/17 01:23:34;;;;;;;5.57;1.70;;;19.80;80.30;;;;;;5027528;28;20557;-51
2022/07/17 01:26:04;;;;;;;3.35;1.90;;;19.80;80.20;;;;;;5029717;28;20201;-49
2022/07/17 01:28:33;;;;;;;7.30;1.70;;;19.80;80.20;;;;;;5033555;28;20672;-50
2022/07/17 01:31:03;;;;;;;5.13;1.85;;;19.80;80.40;;;;;;5044130;28;20299;-50
2022/07/17 01:33:30;;;;;;;3.45;1.60;;;19.80;80.50;;;;;;5049229;28;20212;-51
2022/07/17 01:36:00;;;;;;;3.60;1.25;;;19.70;80.40;;;;;;5051390;28;20206;-50
2022/07/17 01:38:27;;;;;;;4.85;1.65;;;19.70;80.40;;;;;;5035994;28;20829;-50
2022/07/17 01:40:54;;;;;;;4.38;1.80;;;19.70;80.40;;;;;;5039333;28;20208;-50
2022/07/17 01:43:21;;;;;;;4.63;1.65;;;19.70;80.70;;;;;;5050561;28;20196;-50
2022/07/17 01:45:49;;;;;;;3.47;1.63;;;19.70;80.50;;;;;;5049694;28;20204;-50
2022/07/17 01:48:31;;;;;;;3.53;1.70;;;19.60;80.60;;;;;;5048888;28;20279;-50
2022/07/17 01:50:59;;;;;;;3.42;1.73;;;19.70;81.20;;;;;;5050688;28;20668;-51
2022/07/17 01:53:29;;;;;;;5.30;2.00;;;19.60;80.60;;;;;;5049099;28;20192;-50
2022/07/17 01:55:58;;;;;;;4.03;1.60;;;19.60;80.70;;;;;;5037321;28;20239;-51
2022/07/17 01:58:28;;;;;;;4.25;1.90;;;19.50;80.70;;;;;;5037481;28;20778;-50
2022/07/17 02:00:58;;;;;;;4.80;1.80;;;19.50;80.90;;;;;;5055048;28;20712;-50
2022/07/17 02:03:27;;;;;;;3.42;1.70;;;19.50;81.00;;;;;;5070358;28;20651;-42
2022/07/17 02:05:55;;;;;;;5.00;1.80;;;19.50;81.10;;;;;;5070727;28;20700;-42
2022/07/17 02:08:22;;;;;;;2.35;1.38;;;19.50;80.90;;;;;;5070183;28;20294;-42
2022/07/17 02:10:49;;;;;;;2.85;1.40;;;19.50;80.90;;;;;;5037240;28;20724;-43
2022/07/17 02:13:16;;;;;;;4.60;2.00;;;19.50;81.70;;;;;;5030875;28;20306;-43
2022/07/17 02:15:44;;;;;;;3.80;1.73;;;19.40;81.10;;;;;;5044436;28;20416;-42
2022/07/17 02:18:11;;;;;;;2.35;1.52;;;19.40;81.20;;;;;;5049863;28;20228;-42
2022/07/17 02:20:38;;;;;;;3.53;1.75;;;19.40;81.40;;;;;;5049389;28;20291;-42
2022/07/17 02:23:06;;;;;;;3.17;1.85;;;19.30;81.30;;;;;;5050093;28;20216;-42
2022/07/17 02:25:33;;;;;;;2.60;1.45;;;19.30;81.20;;;;;;5050286;28;20196;-42
2022/07/17 02:28:03;;;;;;;3.35;1.60;;;19.30;81.40;;;;;;5048762;28;20205;-43
2022/07/17 02:30:32;;;;;;;4.10;1.77;;;19.20;81.40;;;;;;5050094;28;20227;-43
2022/07/17 02:33:00;;;;;;;4.75;1.98;;;19.20;81.40;;;;;;5032068;28;20382;-42
2022/07/17 02:35:27;;;;;;;5.30;2.20;;;19.20;81.60;;;;;;5030569;28;20208;-43
2022/07/17 02:37:55;;;;;;;2.88;1.88;;;19.10;81.50;;;;;;5029103;28;20618;-42
2022/07/17 02:40:25;;;;;;;5.18;1.95;;;19.10;81.60;;;;;;5039504;28;20228;-43
2022/07/17 02:42:52;;;;;;;6.03;1.52;;;19.10;81.60;;;;;;5029773;28;20258;-43
2022/07/17 02:45:24;;;;;;;3.88;1.60;;;19.10;81.70;;;;;;5030670;28;20688;-43
2022/07/17 02:47:54;;;;;;;3.70;2.00;;;19.00;81.70;;;;;;5029562;28;20209;-43
2022/07/17 02:50:22;;;;;;;5.93;2.08;;;19.00;81.80;;;;;;5029801;28;20287;-43
2022/07/17 02:52:49;;;;;;;3.30;1.55;;;19.00;81.80;;;;;;5029580;28;20235;-43
2022/07/17 02:55:20;;;;;;;3.55;1.67;;;18.90;81.50;;;;;;5029235;28;21280;-43
2022/07/17 02:57:47;;;;;;;2.90;1.98;;;18.90;81.60;;;;;;5029502;28;20566;-43
2022/07/17 03:00:16;;;;;;;4.93;2.33;;;18.90;81.70;;;;;;5044536;28;20195;-43
2022/07/17 03:02:45;;;;;;;4.28;1.58;;;18.90;81.90;;;;;;5051749;28;20624;-41
2022/07/17 03:05:16;;;;;;;3.75;1.80;;;18.90;81.80;;;;;;5032019;28;20258;-41
2022/07/17 03:07:44;;;;;;;4.50;1.90;;;18.90;81.90;;;;;;5036551;28;20208;-49
2022/07/17 03:10:11;;;;;;;3.50;2.03;;;18.90;82.10;;;;;;5041627;28;20223;-49
2022/07/17 03:12:39;;;;;;;3.20;1.92;;;18.80;81.80;;;;;;5049348;28;20653;-49
2022/07/17 03:15:08;;;;;;;2.78;1.88;;;18.80;82.00;;;;;;5049151;28;20197;-50
2022/07/17 03:17:39;;;;;;;6.10;1.90;;;18.80;82.00;;;;;;5047502;28;20691;-50
2022/07/17 03:20:11;;;;;;;3.72;1.77;;;18.80;82.20;;;;;;5046644;28;20238;-50
2022/07/17 03:22:41;;;;;;;3.53;2.17;;;18.70;82.20;;;;;;5042441;28;20759;-41
2022/07/17 03:25:09;;;;;;;4.57;1.67;;;18.70;82.30;;;;;;5028680;28;20683;-41
2022/07/17 03:27:38;;;;;;;3.17;1.80;;;18.70;82.20;;;;;;5029451;28;20536;-41
2022/07/17 03:30:09;;;;;;;4.63;1.85;;;18.60;82.20;;;;;;5027587;28;20239;-41
2022/07/17 03:32:40;;;;;;;4.60;2.35;;;18.60;82.20;;;;;;5028442;28;20201;-41
2022/07/17 03:35:08;;;;;;;2.78;1.80;;;18.60;82.20;;;;;;5029119;28;20308;-42
2022/07/17 03:37:37;;;;;;;3.65;1.75;;;18.60;82.30;;;;;;5029403;28;20205;-41
2022/07/17 03:40:08;;;;;;;5.20;1.70;;;18.50;82.20;;;;;;5028640;28;20741;-41
2022/07/17 03:42:35;;;;;;;3.80;1.85;;;18.50;82.20;;;;;;5028925;28;20225;-41
2022/07/17 03:45:03;;;;;;;4.05;1.70;;;18.50;82.20;;;;;;5028497;28;20612;-42
2022/07/17 03:47:30;;;;;;;2.38;1.55;;;18.50;82.30;;;;;;5028460;28;20236;-41
2022/07/17 03:50:00;;;;;;;3.05;1.73;;;18.50;82.40;;;;;;5028545;28;20290;-42
2022/07/17 03:52:27;;;;;;;3.63;1.90;;;18.40;82.40;;;;;;5029624;28;20216;-43
2022/07/17 03:54:57;;;;;;;5.28;2.05;;;18.40;82.10;;;;;;5029487;28;20604;-41
2022/07/17 03:57:24;;;;;;;3.90;1.90;;;18.40;82.40;;;;;;5041487;28;20230;-41
2022/07/17 03:59:52;;;;;;;4.53;1.90;;;18.40;82.30;;;;;;5051189;28;20593;-40
2022/07/17 04:02:19;;;;;;;3.33;1.75;;;18.40;82.50;;;;;;5068081;28;20645;-41
2022/07/17 04:04:46;;;;;;;4.55;1.70;;;18.40;82.60;;;;;;5068606;28;20215;-41
2022/07/17 04:07:28;;;;;;;3.42;1.92;;;18.30;82.60;;;;;;5068336;28;20241;-41
2022/07/17 04:09:59;;;;;;;2.83;1.70;;;18.30;82.60;;;;;;5056081;28;20213;-41
2022/07/17 04:12:29;;;;;;;4.45;1.42;;;18.30;82.80;;;;;;5043100;28;20201;-42
2022/07/17 04:14:57;;;;;;;3.78;1.60;;;18.30;83.00;;;;;;5043174;28;20204;-41
2022/07/17 04:17:24;;;;;;;4.53;1.65;;;18.20;83.00;;;;;;5047642;28;20208;-41
2022/07/17 04:19:52;;;;;;;3.22;1.90;;;18.20;83.00;;;;;;5046923;28;20752;-42
2022/07/17 04:22:19;;;;;;;4.35;1.85;;;18.20;83.10;;;;;;5048353;28;20200;-41
2022/07/17 04:24:46;;;;;;;6.15;2.10;;;18.20;83.10;;;;;;5047532;28;20204;-41
2022/07/17 04:27:14;;;;;;;5.32;1.70;;;18.20;83.10;;;;;;5043828;28;20712;-41
2022/07/17 04:29:41;;;;;;;2.85;1.70;;;18.10;83.00;;;;;;5028509;28;20232;-41
2022/07/17 04:32:13;;;;;;;4.35;1.70;;;18.10;83.00;;;;;;5045098;28;20204;-40
2022/07/17 04:34:40;;;;;;;5.47;1.85;;;18.20;83.10;;;;;;5048268;28;20237;-51
2022/07/17 04:37:12;;;;;;;4.10;1.92;;;18.20;83.00;;;;;;5047854;28;20223;-50
2022/07/17 04:39:39;;;;;;;3.30;1.42;;;18.20;83.20;;;;;;5047540;28;20555;-52
2022/07/17 04:42:06;;;;;;;5.15;1.92;;;18.20;83.20;;;;;;5028736;28;20208;-41
2022/07/17 04:44:33;;;;;;;4.70;2.38;;;18.20;83.20;;;;;;5029087;28;20207;-41
2022/07/17 04:47:00;;;;;;;5.82;2.30;;;18.20;83.20;;;;;;5027197;28;20595;-42
2022/07/17 04:49:28;;;;;;;4.70;1.88;;;18.20;83.50;;;;;;5047756;28;20544;-41
2022/07/17 04:51:58;;;;;;;6.18;2.00;;;18.20;83.40;;;;;;5047840;28;20224;-41
2022/07/17 04:54:25;;;;;;;6.13;2.40;;;18.20;83.60;;;;;;5046481;28;20262;-41
2022/07/17 04:56:55;;;;;;;3.58;2.25;;;18.20;83.60;;;;;;5046666;28;20220;-41
2022/07/17 04:59:24;;;;;;;5.07;2.30;;;18.20;83.60;;;;;;5048085;28;20228;-41
2022/07/17 05:01:51;;;;;;;3.30;1.90;;;18.20;83.70;;;;;;5051537;28;20215;-41
2022/07/17 05:04:19;;;;;;;5.00;1.83;;;18.20;83.70;;;;;;5035065;28;20232;-42
2022/07/17 05:06:56;;;;;;;3.78;1.83;;;18.20;83.80;;;;;;5051601;28;20430;-41
2022/07/17 05:09:26;;;;;;;3.65;1.95;;;18.20;83.70;;;;;;5050344;28;20547;-41
2022/07/17 05:11:53;;;;;;;3.30;1.80;;;18.20;83.70;;;;;;5048479;28;20232;-42
2022/07/17 05:14:22;;;;;;;3.40;2.10;;;18.20;83.60;;;;;;5050107;28;20192;-41
2022/07/17 05:16:50;;;;;;;5.53;1.95;;;18.20;83.70;;;;;;5050876;28;20231;-41
2022/07/17 05:19:17;;;;;;;4.57;2.03;;;18.30;83.80;;;;;;5046179;28;20254;-40
2022/07/17 05:21:45;;;;;;;5.20;1.95;;;18.30;83.90;;;;;;5036054;28;20247;-41
2022/07/17 05:24:14;;;;;;;5.03;2.25;;;18.30;84.00;;;;;;5029607;28;20205;-41
2022/07/17 05:26:42;;;;;;;3.90;2.50;;;18.30;84.10;;;;;;5030058;28;20386;-41
2022/07/17 05:29:09;;;;;;;3.00;2.00;;;18.30;84.10;;;;;;5031493;28;20657;-41
2022/07/17 05:31:36;;;;;;;4.53;1.73;;;18.30;84.20;;;;;;5029577;28;20409;-41
2022/07/17 05:34:04;;;;;;;5.18;2.08;;;18.30;84.10;;;;;;5031046;28;20219;-41
2022/07/17 05:36:33;;;;;;;6.95;2.22;;;18.40;84.90;;;;;;5031875;28;20296;-41
2022/07/17 05:39:03;;;;;;;3.95;1.90;;;18.40;84.30;;;;;;5039956;28;20633;-41
2022/07/17 05:41:31;;;;;;;4.40;2.22;;;18.50;84.30;;;;;;5037881;28;20211;-41
2022/07/17 05:44:03;;;;;;;5.13;2.15;;;18.40;84.30;;;;;;5030721;28;20225;-41
2022/07/17 05:46:33;;;;;;;3.60;1.95;;;18.50;84.40;;;;;;5031126;28;20299;-41
2022/07/17 05:49:00;;;;;;;6.30;2.40;;;18.50;84.50;;;;;;5030675;28;20737;-42
2022/07/17 05:51:27;;;;;;;3.42;1.73;;;18.60;84.60;;;;;;5030983;28;20225;-41
2022/07/17 05:53:57;;;;;;;5.20;2.35;;;18.60;84.60;;;;;;5048701;28;20464;-42
2022/07/17 05:56:25;;;;;;;4.47;2.10;;;18.60;84.60;;;;;;5037655;28;20312;-43
2022/07/17 05:58:54;;;;;;;5.05;2.25;;;18.60;84.60;;;;;;5030651;28;20232;-41
2022/07/17 06:01:24;;;;;;;4.03;2.30;;;18.70;84.70;;;;;;5062764;28;20213;-42
2022/07/17 06:03:51;;;;;;;3.13;2.03;;;18.70;84.80;;;;;;5070240;28;20298;-42
2022/07/17 06:06:20;;;;;;;4.00;1.88;;;18.80;84.90;;;;;;5069149;28;20588;-42
2022/07/17 06:08:48;;;;;;;2.60;2.05;;;18.80;84.80;;;;;;5066783;28;20204;-42
2022/07/17 06:11:17;;;;;;;5.22;1.75;;;18.90;84.80;;;;;;5030589;28;20237;-42
2022/07/17 06:13:51;;;;;;;4.72;1.80;;;18.90;84.80;;;;;;5030231;28;20402;-42
2022/07/17 06:16:18;;;;;;;3.33;1.70;;;18.90;84.80;;;;;;5030473;28;20288;-42
2022/07/17 06:18:46;;;;;;;5.05;1.83;;;19.00;85.00;;;;;;5028660;28;20599;-41
2022/07/17 06:21:16;;;;;;;3.75;1.48;;;19.00;85.10;;;;;;5030228;28;20204;-42
2022/07/17 06:23:45;;;;;;;2.72;1.80;;;19.00;84.90;;;;;;5028714;28;20674;-40
2022/07/17 06:26:14;;;;;;;3.28;1.77;;;19.10;85.10;;;;;;5031038;28;20279;-41
2022/07/17 06:28:42;;;;;;;3.97;1.80;;;19.10;85.20;;;;;;5030070;28;20215;-41
2022/07/17 06:31:09;;;;;;;5.65;1.80;;;19.10;85.20;;;;;;5037984;28;20216;-41
2022/07/17 06:33:36;;;;;;;4.97;1.60;;;19.20;85.30;;;;;;5048429;28;20208;-40
2022/07/17 06:36:06;;;;;;;3.17;1.80;;;19.20;85.30;;;;;;5048820;28;20710;-43
2022/07/17 06:38:36;;;;;;;3.38;1.52;;;19.30;85.40;;;;;;5049408;28;20223;-42
2022/07/17 06:41:05;;;;;;;5.57;1.58;;;19.40;85.50;;;;;;5049711;28;20220;-42
2022/07/17 06:43:35;;;;;;;3.83;1.50;;;19.40;85.50;;;;;;5042468;28;20204;-42
2022/07/17 06:46:07;;;;;;;4.75;1.50;;;19.40;85.50;;;;;;5030223;28;20571;-42
2022/07/17 06:48:34;;;;;;;5.45;1.75;;;19.50;85.60;;;;;;5049615;28;20219;-41
2022/07/17 06:51:01;;;;;;;3.55;1.65;;;19.50;85.50;;;;;;5048401;28;20273;-42
2022/07/17 06:53:31;;;;;;;4.03;1.63;;;19.60;85.80;;;;;;5048313;28;20239;-42
2022/07/17 06:56:01;;;;;;;4.30;1.60;;;19.60;85.80;;;;;;5048633;28;20556;-43
2022/07/17 06:58:28;;;;;;;2.60;1.52;;;19.70;86.60;;;;;;5048251;28;20236;-42
2022/07/17 07:00:55;;;;;;;4.47;1.50;;;19.70;86.00;;;;;;5040471;28;20212;-50
2022/07/17 07:03:25;;;;;;;3.28;1.45;;;19.70;85.90;;;;;;5033495;28;20234;-41
2022/07/17 07:05:52;;;;;;;2.95;1.50;;;19.80;86.00;;;;;;5048223;28;20573;-41
2022/07/17 07:08:24;;;;;;;5.72;1.55;;;19.80;86.00;;;;;;5047385;28;20259;-42
2022/07/17 07:10:53;;;;;;;2.95;1.20;;;19.90;86.20;;;;;;5036477;28;20228;-42
2022/07/17 07:13:21;;;;;;;2.28;1.23;;;20.00;86.30;;;;;;5028769;28;20248;-42
2022/07/17 07:15:50;;;;;;;5.32;1.35;;;20.00;86.30;;;;;;5029717;28;20220;-42
2022/07/17 07:18:18;;;;;;;3.08;1.38;;;20.10;86.40;;;;;;5029455;28;20228;-42
2022/07/17 07:20:47;;;;;;;3.70;1.42;;;20.10;86.40;;;;;;5036742;28;20210;-42
2022/07/17 07:23:14;;;;;;;6.18;1.85;;;20.20;86.60;;;;;;5048452;28;20220;-42
2022/07/17 07:25:44;;;;;;;6.68;1.48;;;20.20;86.60;;;;;;5049073;28;20204;-42
2022/07/17 07:28:12;;;;;;;7.45;1.92;;;20.20;86.50;;;;;;5048674;28;20212;-42
2022/07/17 07:30:39;;;;;;;4.30;1.40;;;20.30;86.60;;;;;;5048637;28;20232;-42
2022/07/17 07:33:10;;;;;;;7.53;1.60;;;20.30;86.50;;;;;;5048224;28;20200;-42
2022/07/17 07:35:38;;;;;;;3.42;1.10;;;20.40;86.70;;;;;;5048292;28;20219;-46
2022/07/17 07:38:06;;;;;;;4.18;1.90;;;20.40;86.80;;;;;;5036274;28;20220;-45
2022/07/17 07:40:33;;;;;;;2.25;1.20;;;20.50;86.90;;;;;;5031929;28;20299;-45
2022/07/17 07:43:05;;;;;;;4.18;1.60;;;20.50;86.70;;;;;;5027090;28;20304;-45
2022/07/17 07:45:33;;;;;;;4.22;1.38;;;20.60;86.80;;;;;;5028453;28;20250;-45
2022/07/17 07:48:00;;;;;;;5.10;1.70;;;20.70;86.90;;;;;;5028549;28;20205;-46
2022/07/17 07:50:28;;;;;;;6.72;1.80;;;20.70;86.80;;;;;;5028795;28;20219;-46
2022/07/17 07:52:58;;;;;;;5.57;1.63;;;20.80;86.80;;;;;;5027378;28;20209;-46
2022/07/17 07:55:25;;;;;;;3.53;1.80;;;20.80;87.50;;;;;;5041611;28;20247;-46
2022/07/17 07:58:05;;;;;;;4.32;2.03;;;20.90;87.00;;;;;;5046745;28;20347;-46
2022/07/17 08:00:34;;;;;;;4.68;1.60;;;21.00;87.20;;;;;;5058396;28;20219;-46
2022/07/17 08:03:04;;;;;;;4.75;1.90;;;21.00;87.20;;;;;;5067852;28;20644;-46
2022/07/17 08:05:34;;;;;;;3.55;1.98;;;21.00;87.30;;;;;;5068396;28;20196;-46
2022/07/17 08:08:01;;;;;;;5.70;1.92;;;21.10;87.30;;;;;;5062170;28;20882;-45
2022/07/17 08:10:30;;;;;;;4.40;1.60;;;21.10;88.00;;;;;;5028505;28;20209;-45
2022/07/17 08:12:57;;;;;;;5.53;1.95;;;21.20;87.50;;;;;;5035850;28;20211;-45
2022/07/17 08:15:25;;;;;;;3.95;1.90;;;21.30;87.50;;;;;;5028625;28;20196;-45
2022/07/17 08:17:53;;;;;;;7.55;1.83;;;21.30;87.50;;;;;;5027555;28;20311;-51
2022/07/17 08:20:26;;;;;;;3.20;1.60;;;21.40;87.50;;;;;;5028703;28;20219;-51
2022/07/17 08:22:53;;;;;;;3.40;1.42;;;21.40;87.50;;;;;;5027909;28;20197;-51
2022/07/17 08:25:35;;;;;;;6.53;1.63;;;21.40;87.40;;;;;;5028992;28;20219;-51
2022/07/17 08:28:05;;;;;;;3.25;1.60;;;21.50;87.40;;;;;;5029659;28;20205;-50
2022/07/17 08:30:34;;;;;;;3.00;1.50;;;21.50;87.30;;;;;;5047840;28;20192;-50
2022/07/17 08:33:07;;;;;;;3.65;1.60;;;21.50;87.30;;;;;;5047777;28;20189;-50
2022/07/17 08:35:37;;;;;;;3.55;1.23;;;21.60;87.20;;;;;;5049689;28;20223;-50
2022/07/17 08:38:07;;;;;;;4.03;1.30;;;21.50;87.00;;;;;;5050315;28;20218;-51
2022/07/17 08:40:38;;;;;;;3.70;1.30;;;21.60;87.10;;;;;;5050846;28;20726;-50
2022/07/17 08:43:07;;;;;;;3.65;1.77;;;21.60;87.10;;;;;;5038338;28;20201;-50
2022/07/17 08:45:43;;;;;;;3.22;1.40;;;21.70;87.20;;;;;;5032769;28;20227;-51
2022/07/17 08:48:17;;;;;;;4.72;1.10;;;21.70;87.00;;;;;;5037321;28;20266;-50
2022/07/17 08:50:45;;;;;;;2.88;0.98;;;21.70;87.00;;;;;;5034293;28;20200;-52
2022/07/17 08:53:13;;;;;;;3.72;1.27;;;21.70;87.00;;;;;;5051273;28;20287;-50
2022/07/17 08:55:40;;;;;;;3.28;0.90;;;21.80;87.10;;;;;;5051815;28;20212;-49
2022/07/17 08:58:08;;;;;;;3.05;1.20;;;21.80;87.00;;;;;;5051198;28;20897;-48
2022/07/17 09:00:40;;;;;;;4.63;1.30;;;21.90;87.20;;;;;;5060304;28;20645;-50
2022/07/17 09:03:09;;;;;;;3.97;1.30;;;21.90;87.20;;;;;;5049644;28;20217;-49
2022/07/17 09:05:41;;;;;;;3.03;1.40;;;21.90;87.30;;;;;;5032135;28;20545;-49
2022/07/17 09:08:20;;;;;;;4.43;1.30;;;22.00;87.40;;;;;;5031556;28;20216;-49
2022/07/17 09:10:54;;;;;;;3.65;1.20;;;22.10;87.50;;;;;;5031252;28;20216;-48
2022/07/17 09:13:24;;;;;;;3.08;1.30;;;22.10;87.50;;;;;;5031510;28;20193;-49
2022/07/17 09:15:58;;;;;;;4.38;1.85;;;22.20;87.70;;;;;;5040959;28;20208;-48
2022/07/17 09:18:26;;;;;;;3.20;1.00;;;22.30;87.90;;;;;;5050447;28;20575;-49
2022/07/17 09:20:57;;;;;;;3.03;1.10;;;22.30;87.90;;;;;;5032899;28;20213;-49
2022/07/17 09:23:26;;;;;;;4.13;1.52;;;22.40;87.90;;;;;;5029495;28;20291;-49
2022/07/17 09:25:57;;;;;;;4.00;1.20;;;22.50;88.00;;;;;;5031318;28;20193;-49
2022/07/17 09:28:27;;;;;;;4.20;1.42;;;22.50;87.70;;;;;;5031475;28;20593;-49
2022/07/17 09:30:55;;;;;;;5.85;1.52;;;22.50;87.60;;;;;;5030735;28;20251;-49
2022/07/17 09:33:26;;;;;;;3.90;1.27;;;22.50;87.40;;;;;;5031105;28;20209;-49
2022/07/17 09:36:05;;;;;;;1.50;1.08;;;22.50;87.40;;;;;;5031448;28;20259;-49
2022/07/17 09:38:35;;;;;;;3.85;1.25;;;22.60;87.60;;;;;;5030443;28;20197;-49
2022/07/17 09:41:11;;;;;;;2.17;1.25;;;22.60;87.70;;;;;;5036302;28;20243;-48
2022/07/17 09:43:42;;;;;;;3.80;1.35;;;22.70;87.90;;;;;;5029170;28;20222;-49
2022/07/17 09:46:16;;;;;;;2.72;1.40;;;22.70;87.80;;;;;;5030803;28;20300;-50
2022/07/17 09:48:50;;;;;;;4.47;1.45;;;22.80;87.90;;;;;;5029358;28;20655;-49
2022/07/17 09:51:24;;;;;;;5.43;1.67;;;22.90;87.90;;;;;;5043897;28;20604;-49
2022/07/17 09:53:54;;;;;;;3.13;1.45;;;22.90;87.80;;;;;;5042565;28;20299;-49
2022/07/17 09:56:30;;;;;;;2.90;1.30;;;22.90;87.90;;;;;;5041961;28;20197;-50
2022/07/17 09:59:05;;;;;;;5.65;1.65;;;22.90;87.70;;;;;;5030621;28;20323;-43
2022/07/17 10:01:39;;;;;;;6.20;1.90;;;23.00;87.50;;;;;;5065329;28;20283;-43
2022/07/17 10:04:10;;;;;;;3.08;1.45;;;23.00;87.60;;;;;;5068982;28;20226;-43
2022/07/17 10:06:38;;;;;;;3.58;1.40;;;23.00;87.60;;;;;;5070497;28;20394;-49
2022/07/17 10:09:10;;;;;;;3.20;1.25;;;23.00;87.50;;;;;;5048687;28;20775;-49
2022/07/17 10:11:39;;;;;;;3.72;1.50;;;23.10;87.70;;;;;;5049221;28;20255;-43
2022/07/17 10:14:16;;;;;;;3.50;1.58;;;23.10;87.70;;;;;;5048920;28;20577;-43
2022/07/17 10:16:46;;;;;;;2.78;1.58;;;23.10;87.70;;;;;;5031826;28;20287;-43
2022/07/17 10:19:24;;;;;;;2.45;1.10;;;23.10;87.50;;;;;;5030279;28;20252;-43
2022/07/17 10:21:57;;;;;;;2.55;1.40;;;23.20;87.50;;;;;;5028854;28;20561;-43
2022/07/17 10:24:26;;;;;;;3.58;1.33;;;23.20;87.30;;;;;;5030742;28;20713;-49
2022/07/17 10:26:59;;;;;;;2.75;1.40;;;23.30;87.60;;;;;;5030980;28;20562;-49
2022/07/17 10:29:45;;;;;;;3.78;1.25;;;23.30;87.10;;;;;;5050187;28;20219;-49
2022/07/17 10:32:20;;;;;;;3.28;1.30;;;23.40;87.20;;;;;;5049497;28;20219;-49
2022/07/17 10:35:06;;;;;;;4.45;1.40;;;23.30;86.70;;;;;;5050223;28;20197;-49
2022/07/17 10:37:36;;;;;;;3.67;1.17;;;23.40;86.50;;;;;;5049502;28;20204;-50
2022/07/17 10:40:10;;;;;;;2.67;1.10;;;23.40;86.70;;;;;;5049499;28;20230;-50
2022/07/17 10:42:51;;;;;;;4.45;1.45;;;23.40;87.00;;;;;;5050811;28;20214;-48
2022/07/17 10:45:42;;;;;;;3.60;1.20;;;23.40;87.20;;;;;;5050159;28;20204;-49
2022/07/17 10:48:13;;;;;;;3.35;1.30;;;23.50;87.50;;;;;;5049642;28;20676;-43
2022/07/17 10:50:51;;;;;;;3.03;1.25;;;23.60;87.60;;;;;;5049193;28;20646;-42
2022/07/17 10:53:33;;;;;;;4.65;1.40;;;23.60;87.70;;;;;;5049373;28;20230;-43
2022/07/17 10:56:04;;;;;;;6.45;1.40;;;23.70;87.50;;;;;;5048506;28;20207;-43
2022/07/17 10:58:37;;;;;;;6.80;1.23;;;23.80;87.60;;;;;;5046798;28;20248;-43
2022/07/17 11:01:12;;;;;;;4.00;0.90;;;23.80;87.40;;;;;;5039240;28;20228;-43
2022/07/17 11:03:48;;;;;;;1.60;0.95;;;23.80;87.10;;;;;;5029127;28;20247;-43
2022/07/17 11:06:24;;;;;;;3.65;1.20;;;23.90;87.40;;;;;;5029428;28;20201;-43
2022/07/17 11:08:53;;;;;;;2.10;1.25;;;24.00;87.60;;;;;;5027261;28;20283;-42
2022/07/17 11:11:35;;;;;;;3.60;1.40;;;24.00;87.40;;;;;;5028111;28;20212;-42
2022/07/17 11:14:11;;;;;;;2.50;1.13;;;24.00;87.20;;;;;;5029093;28;20209;-43
2022/07/17 11:16:53;;;;;;;2.92;1.70;;;24.10;87.60;;;;;;5040180;28;20230;-44
2022/07/17 11:19:44;;;;;;;2.05;1.20;;;24.10;86.70;;;;;;5029242;28;20197;-43
2022/07/17 11:22:13;;;;;;;1.88;1.15;;;24.20;86.50;;;;;;5029039;28;20217;-45
2022/07/17 11:24:43;;;;;;;3.13;1.67;;;24.10;86.40;;;;;;5028967;28;20251;-51
2022/07/17 11:27:13;;;;;;;3.55;1.40;;;24.20;86.70;;;;;;5027599;28;20208;-50
2022/07/17 11:29:41;;;;;;;2.90;1.27;;;24.30;87.00;;;;;;5027606;28;20730;-50
2022/07/17 11:32:08;;;;;;;2.72;1.15;;;24.30;86.70;;;;;;5028485;28;20275;-50
2022/07/17 11:34:38;;;;;;;2.33;1.00;;;24.30;86.90;;;;;;5029130;28;20193;-49
2022/07/17 11:37:07;;;;;;;2.15;1.30;;;24.40;87.10;;;;;;5027125;28;20204;-48
2022/07/17 11:39:46;;;;;;;2.38;1.48;;;24.40;87.00;;;;;;5028570;28;20213;-49
2022/07/17 11:42:14;;;;;;;3.08;1.45;;;24.50;86.90;;;;;;5027294;28;20202;-49
2022/07/17 11:44:44;;;;;;;4.20;1.23;;;24.60;86.80;;;;;;5028466;28;20211;-48
2022/07/17 11:47:19;;;;;;;2.22;1.20;;;24.60;86.90;;;;;;5028061;28;20219;-50
2022/07/17 11:49:48;;;;;;;1.48;1.00;;;24.70;87.10;;;;;;5037549;28;20214;-50
2022/07/17 11:52:19;;;;;;;3.78;1.40;;;24.70;87.10;;;;;;5044780;28;20594;-50
2022/07/17 11:54:55;;;;;;;2.78;1.20;;;24.80;87.20;;;;;;5026614;28;20193;-49
2022/07/17 11:57:29;;;;;;;1.95;1.10;;;24.80;87.00;;;;;;5027138;28;20295;-49
2022/07/17 12:00:08;;;;;;;2.75;1.20;;;24.90;88.00;;;;;;5038125;28;20202;-49
2022/07/17 12:02:38;;;;;;;2.78;1.25;;;24.90;87.30;;;;;;5066608;28;20583;-48
2022/07/17 12:05:09;;;;;;;2.47;1.30;;;25.00;87.20;;;;;;5068184;28;20696;-49
2022/07/17 12:07:39;;;;;;;5.30;1.48;;;25.10;86.60;;;;;;5034890;28;20282;-49
2022/07/17 12:10:24;;;;;;;1.55;1.38;;;25.10;87.00;;;;;;5035198;28;20206;-49
2022/07/17 12:12:54;;;;;;;1.80;1.20;;;25.20;87.00;;;;;;5029988;28;20295;-50
2022/07/17 12:15:33;;;;;;;3.15;1.60;;;25.30;86.40;;;;;;5027056;28;20691;-48
2022/07/17 12:18:02;;;;;;;5.15;1.58;;;25.30;86.90;;;;;;5042372;28;20223;-48
2022/07/17 12:20:50;;;;;;;2.42;1.30;;;25.30;86.70;;;;;;5048382;28;20204;-48
2022/07/17 12:23:32;;;;;;;1.60;0.85;;;25.40;87.00;;;;;;5046903;28;20224;-48
2022/07/17 12:26:05;;;;;;;2.10;1.23;;;25.40;87.00;;;;;;5044910;28;20291;-48
2022/07/17 12:28:33;;;;;;;4.53;1.30;;;25.50;86.90;;;;;;5028253;28;20209;-49
2022/07/17 12:31:06;;;;;;;4.03;1.40;;;25.60;86.80;;;;;;5028309;28;20296;-49
2022/07/17 12:33:34;;;;;;;2.47;1.30;;;25.60;86.50;;;;;;5025928;28;20247;-50
2022/07/17 12:36:03;;;;;;;3.58;1.38;;;25.70;86.50;;;;;;5028271;28;20682;-50
2022/07/17 12:38:33;;;;;;;4.28;1.23;;;25.70;86.70;;;;;;5027690;28;20666;-48
2022/07/17 12:41:20;;;;;;;5.05;1.48;;;25.70;86.10;;;;;;5027752;28;20247;-49
2022/07/17 12:43:48;;;;;;;3.63;1.60;;;25.80;87.00;;;;;;5026807;28;20208;-48
2022/07/17 12:46:17;;;;;;;2.45;1.10;;;25.80;86.80;;;;;;5028005;28;20207;-48
2022/07/17 12:48:45;;;;;;;1.67;1.30;;;25.90;87.00;;;;;;5027297;28;20224;-48
2022/07/17 12:51:16;;;;;;;1.98;1.30;;;25.90;87.20;;;;;;5027994;28;20239;-48
2022/07/17 12:53:46;;;;;;;3.13;1.15;;;26.00;87.40;;;;;;5027509;28;20601;-44
2022/07/17 12:56:16;;;;;;;1.90;1.23;;;26.10;86.40;;;;;;5027826;28;20197;-43
2022/07/17 12:58:43;;;;;;;1.50;1.10;;;26.10;87.00;;;;;;5028101;28;20237;-46
2022/07/17 13:01:11;;;;;;;1.35;1.10;;;26.10;86.70;;;;;;5035737;28;20201;-46
2022/07/17 13:03:38;;;;;;;1.23;1.13;;;26.20;86.90;;;;;;5025956;28;20209;-46